KSAD

Safford Regional Airport

Safford, Arizona, USA
METAR KSAD 211951Z AUTO 13004KT 10SM CLR 19/M05 A2980 RMK AO2 PRESFR SLP071 T01891050
Observed Flight Rules
Jan-21 @ 19:51 UTC (an hour ago) Visual Flight Rules
Wind Visibility Clouds
130° at 4 knots 10 miles
  • Clear skies
Temperatures Readings
Current 19°C / 66°F
Dewpoint -5°C / 23°F
Humidity 19%
Altimeter 29.8" Hg
Pressure 1007.1 hPa
Elevation 962
METAR KSAD 211951Z AUTO 13004KT 10SM CLR 19/M05 A2980 RMK AO2 PRESFR SLP071 T01891050
Observed Flight Rules
Jan-21 @ 19:51 UTC
(an hour ago)
VFR
Wind Visibility
130° at 4 knots 10 miles
Clouds
  • Clear skies
Temperature Dewpoint
19°C / 66°F -5°C / 23°F
Humidity Altimeter Pressure
19% 29.8" Hg 1007.1 hPa